sensor_id;sensor_type;location;lat;lon;timestamp;P1;durP1;ratioP1;P2;durP2;ratioP2
8544;SDS011;4310;51.054;6.994;2022-08-19T00:01:10;41.20;;;38.60;;
8544;SDS011;4310;51.054;6.994;2022-08-19T00:02:14;42.43;;;39.73;;
8544;SDS011;4310;51.054;6.994;2022-08-19T00:03:18;39.08;;;36.65;;
8544;SDS011;4310;51.054;6.994;2022-08-19T00:04:22;38.45;;;36.05;;
8544;SDS011;4310;51.054;6.994;2022-08-19T00:05:26;38.40;;;36.00;;
8544;SDS011;4310;51.054;6.994;2022-08-19T00:06:30;41.83;;;39.15;;
8544;SDS011;4310;51.054;6.994;2022-08-19T00:08:45;40.15;;;37.55;;
8544;SDS011;4310;51.054;6.994;2022-08-19T00:09:49;38.80;;;36.23;;
8544;SDS011;4310;51.054;6.994;2022-08-19T00:10:53;39.60;;;37.00;;
8544;SDS011;4310;51.054;6.994;2022-08-19T00:11:57;36.85;;;34.40;;
8544;SDS011;4310;51.054;6.994;2022-08-19T00:13:01;34.40;;;32.05;;
8544;SDS011;4310;51.054;6.994;2022-08-19T00:14:07;35.20;;;32.78;;
8544;SDS011;4310;51.054;6.994;2022-08-19T00:15:12;37.88;;;35.35;;
8544;SDS011;4310;51.054;6.994;2022-08-19T00:16:16;41.05;;;38.42;;
8544;SDS011;4310;51.054;6.994;2022-08-19T00:17:21;45.00;;;42.13;;
8544;SDS011;4310;51.054;6.994;2022-08-19T00:18:25;39.03;;;36.38;;
8544;SDS011;4310;51.054;6.994;2022-08-19T00:19:29;35.63;;;33.25;;
8544;SDS011;4310;51.054;6.994;2022-08-19T00:20:33;34.67;;;32.30;;
8544;SDS011;4310;51.054;6.994;2022-08-19T00:21:37;36.20;;;33.80;;
8544;SDS011;4310;51.054;6.994;2022-08-19T00:22:42;39.58;;;36.83;;
8544;SDS011;4310;51.054;6.994;2022-08-19T00:23:46;41.80;;;39.20;;
8544;SDS011;4310;51.054;6.994;2022-08-19T00:24:50;44.88;;;41.88;;
8544;SDS011;4310;51.054;6.994;2022-08-19T00:25:54;46.10;;;43.20;;
8544;SDS011;4310;51.054;6.994;2022-08-19T00:26:58;45.38;;;42.62;;
8544;SDS011;4310;51.054;6.994;2022-08-19T00:29:16;40.30;;;37.70;;
8544;SDS011;4310;51.054;6.994;2022-08-19T00:30:20;37.10;;;34.67;;
8544;SDS011;4310;51.054;6.994;2022-08-19T00:31:24;34.63;;;32.13;;
8544;SDS011;4310;51.054;6.994;2022-08-19T00:32:30;32.95;;;30.68;;
8544;SDS011;4310;51.054;6.994;2022-08-19T00:33:33;35.50;;;33.00;;
8544;SDS011;4310;51.054;6.994;2022-08-19T00:35:49;33.67;;;31.20;;
8544;SDS011;4310;51.054;6.994;2022-08-19T00:36:53;33.55;;;31.25;;
8544;SDS011;4310;51.054;6.994;2022-08-19T00:37:57;32.13;;;29.87;;
8544;SDS011;4310;51.054;6.994;2022-08-19T00:39:02;34.43;;;32.13;;
8544;SDS011;4310;51.054;6.994;2022-08-19T00:40:06;35.60;;;33.20;;
8544;SDS011;4310;51.054;6.994;2022-08-19T00:41:11;34.25;;;32.03;;
8544;SDS011;4310;51.054;6.994;2022-08-19T00:42:16;33.58;;;31.27;;
8544;SDS011;4310;51.054;6.994;2022-08-19T00:43:20;34.20;;;31.80;;
8544;SDS011;4310;51.054;6.994;2022-08-19T00:44:25;31.95;;;29.82;;
8544;SDS011;4310;51.054;6.994;2022-08-19T00:45:29;31.75;;;29.48;;
8544;SDS011;4310;51.054;6.994;2022-08-19T00:46:35;30.75;;;28.65;;
8544;SDS011;4310;51.054;6.994;2022-08-19T00:48:50;33.27;;;31.07;;
8544;SDS011;4310;51.054;6.994;2022-08-19T00:49:55;34.48;;;32.28;;
8544;SDS011;4310;51.054;6.994;2022-08-19T00:51:00;37.73;;;35.33;;
8544;SDS011;4310;51.054;6.994;2022-08-19T00:52:06;44.35;;;41.45;;
8544;SDS011;4310;51.054;6.994;2022-08-19T00:53:11;48.70;;;45.70;;
8544;SDS011;4310;51.054;6.994;2022-08-19T00:54:17;51.13;;;48.15;;
8544;SDS011;4310;51.054;6.994;2022-08-19T00:55:22;50.70;;;47.70;;
8544;SDS011;4310;51.054;6.994;2022-08-19T00:56:26;45.10;;;42.33;;
8544;SDS011;4310;51.054;6.994;2022-08-19T00:57:31;44.03;;;41.23;;
8544;SDS011;4310;51.054;6.994;2022-08-19T00:58:35;42.98;;;40.28;;
8544;SDS011;4310;51.054;6.994;2022-08-19T00:59:39;47.33;;;44.30;;
8544;SDS011;4310;51.054;6.994;2022-08-19T01:00:43;44.50;;;41.65;;
8544;SDS011;4310;51.054;6.994;2022-08-19T01:02:59;44.13;;;41.42;;
8544;SDS011;4310;51.054;6.994;2022-08-19T01:04:02;45.33;;;42.43;;
8544;SDS011;4310;51.054;6.994;2022-08-19T01:05:08;38.90;;;36.45;;
8544;SDS011;4310;51.054;6.994;2022-08-19T01:07:24;42.95;;;40.25;;
8544;SDS011;4310;51.054;6.994;2022-08-19T01:08:28;43.13;;;40.33;;
8544;SDS011;4310;51.054;6.994;2022-08-19T01:09:32;47.40;;;44.50;;
8544;SDS011;4310;51.054;6.994;2022-08-19T01:10:37;53.33;;;49.93;;
8544;SDS011;4310;51.054;6.994;2022-08-19T01:11:41;47.67;;;44.67;;
8544;SDS011;4310;51.054;6.994;2022-08-19T01:12:46;46.20;;;43.35;;
8544;SDS011;4310;51.054;6.994;2022-08-19T01:13:50;47.58;;;44.67;;
8544;SDS011;4310;51.054;6.994;2022-08-19T01:14:55;51.85;;;48.63;;
8544;SDS011;4310;51.054;6.994;2022-08-19T01:17:11;52.95;;;49.75;;
8544;SDS011;4310;51.054;6.994;2022-08-19T01:18:16;50.85;;;47.60;;
8544;SDS011;4310;51.054;6.994;2022-08-19T01:19:22;50.17;;;46.95;;
8544;SDS011;4310;51.054;6.994;2022-08-19T01:20:27;43.00;;;40.15;;
8544;SDS011;4310;51.054;6.994;2022-08-19T01:21:32;38.45;;;35.85;;
8544;SDS011;4310;51.054;6.994;2022-08-19T01:22:36;40.78;;;38.17;;
8544;SDS011;4310;51.054;6.994;2022-08-19T01:23:42;45.78;;;42.88;;
8544;SDS011;4310;51.054;6.994;2022-08-19T01:24:45;48.42;;;45.23;;
8544;SDS011;4310;51.054;6.994;2022-08-19T01:25:50;44.67;;;41.87;;
8544;SDS011;4310;51.054;6.994;2022-08-19T01:28:06;42.70;;;39.90;;
8544;SDS011;4310;51.054;6.994;2022-08-19T01:29:10;45.17;;;42.17;;
8544;SDS011;4310;51.054;6.994;2022-08-19T01:30:15;45.48;;;42.38;;
8544;SDS011;4310;51.054;6.994;2022-08-19T01:31:20;44.08;;;40.98;;
8544;SDS011;4310;51.054;6.994;2022-08-19T01:32:24;42.40;;;39.48;;
8544;SDS011;4310;51.054;6.994;2022-08-19T01:33:28;46.70;;;43.65;;
8544;SDS011;4310;51.054;6.994;2022-08-19T01:34:33;46.68;;;43.58;;
8544;SDS011;4310;51.054;6.994;2022-08-19T01:35:37;46.70;;;43.40;;
8544;SDS011;4310;51.054;6.994;2022-08-19T01:36:42;46.00;;;42.95;;
8544;SDS011;4310;51.054;6.994;2022-08-19T01:38:59;49.07;;;45.67;;
8544;SDS011;4310;51.054;6.994;2022-08-19T01:40:04;46.50;;;43.27;;
8544;SDS011;4310;51.054;6.994;2022-08-19T01:41:09;47.93;;;44.50;;
8544;SDS011;4310;51.054;6.994;2022-08-19T01:42:12;43.70;;;40.52;;
8544;SDS011;4310;51.054;6.994;2022-08-19T01:43:16;44.40;;;41.30;;
8544;SDS011;4310;51.054;6.994;2022-08-19T01:44:21;48.00;;;44.60;;
8544;SDS011;4310;51.054;6.994;2022-08-19T01:45:27;49.93;;;46.42;;
8544;SDS011;4310;51.054;6.994;2022-08-19T01:46:31;54.13;;;50.67;;
8544;SDS011;4310;51.054;6.994;2022-08-19T01:47:35;52.45;;;48.75;;
8544;SDS011;4310;51.054;6.994;2022-08-19T01:48:40;51.77;;;48.58;;
8544;SDS011;4310;51.054;6.994;2022-08-19T01:49:44;51.08;;;47.55;;
8544;SDS011;4310;51.054;6.994;2022-08-19T01:50:48;51.08;;;47.78;;
8544;SDS011;4310;51.054;6.994;2022-08-19T01:51:53;48.02;;;44.70;;
8544;SDS011;4310;51.054;6.994;2022-08-19T01:52:57;44.30;;;41.23;;
8544;SDS011;4310;51.054;6.994;2022-08-19T01:55:14;48.25;;;44.95;;
8544;SDS011;4310;51.054;6.994;2022-08-19T01:56:18;49.00;;;45.70;;
8544;SDS011;4310;51.054;6.994;2022-08-19T01:57:22;48.70;;;45.30;;
8544;SDS011;4310;51.054;6.994;2022-08-19T01:58:27;47.40;;;44.10;;
8544;SDS011;4310;51.054;6.994;2022-08-19T02:00:44;54.73;;;50.92;;
8544;SDS011;4310;51.054;6.994;2022-08-19T02:03:00;52.78;;;49.08;;
8544;SDS011;4310;51.054;6.994;2022-08-19T02:04:04;54.23;;;50.55;;
8544;SDS011;4310;51.054;6.994;2022-08-19T02:05:08;49.88;;;46.50;;
8544;SDS011;4310;51.054;6.994;2022-08-19T02:06:12;51.88;;;48.17;;
8544;SDS011;4310;51.054;6.994;2022-08-19T02:08:27;53.15;;;49.55;;
8544;SDS011;4310;51.054;6.994;2022-08-19T02:09:32;52.55;;;49.05;;
8544;SDS011;4310;51.054;6.994;2022-08-19T02:11:49;54.20;;;50.60;;
8544;SDS011;4310;51.054;6.994;2022-08-19T02:12:53;55.30;;;51.77;;
8544;SDS011;4310;51.054;6.994;2022-08-19T02:15:09;55.50;;;51.80;;
8544;SDS011;4310;51.054;6.994;2022-08-19T02:17:24;57.00;;;53.55;;
8544;SDS011;4310;51.054;6.994;2022-08-19T02:18:28;50.57;;;47.37;;
8544;SDS011;4310;51.054;6.994;2022-08-19T02:19:32;50.92;;;47.65;;
8544;SDS011;4310;51.054;6.994;2022-08-19T02:20:36;50.00;;;46.80;;
8544;SDS011;4310;51.054;6.994;2022-08-19T02:21:40;51.73;;;48.50;;
8544;SDS011;4310;51.054;6.994;2022-08-19T02:22:45;53.45;;;49.95;;
8544;SDS011;4310;51.054;6.994;2022-08-19T02:23:49;51.58;;;48.45;;
8544;SDS011;4310;51.054;6.994;2022-08-19T02:26:05;56.20;;;52.75;;
8544;SDS011;4310;51.054;6.994;2022-08-19T02:27:09;55.12;;;51.83;;
8544;SDS011;4310;51.054;6.994;2022-08-19T02:28:13;56.80;;;53.40;;
8544;SDS011;4310;51.054;6.994;2022-08-19T02:29:17;57.03;;;53.60;;
8544;SDS011;4310;51.054;6.994;2022-08-19T02:30:21;56.00;;;52.65;;
8544;SDS011;4310;51.054;6.994;2022-08-19T02:31:25;59.18;;;55.67;;
8544;SDS011;4310;51.054;6.994;2022-08-19T02:32:30;58.33;;;54.90;;
8544;SDS011;4310;51.054;6.994;2022-08-19T02:33:34;58.48;;;55.03;;
8544;SDS011;4310;51.054;6.994;2022-08-19T02:34:38;62.55;;;58.95;;
8544;SDS011;4310;51.054;6.994;2022-08-19T02:35:42;62.43;;;58.73;;
8544;SDS011;4310;51.054;6.994;2022-08-19T02:36:46;63.80;;;60.20;;
8544;SDS011;4310;51.054;6.994;2022-08-19T02:37:50;60.20;;;56.50;;
8544;SDS011;4310;51.054;6.994;2022-08-19T02:39:11;56.50;;;53.10;;
8544;SDS011;4310;51.054;6.994;2022-08-19T02:41:28;60.35;;;56.85;;
8544;SDS011;4310;51.054;6.994;2022-08-19T02:42:33;59.85;;;56.25;;
8544;SDS011;4310;51.054;6.994;2022-08-19T02:43:36;60.67;;;56.88;;
8544;SDS011;4310;51.054;6.994;2022-08-19T02:44:42;63.95;;;60.23;;
8544;SDS011;4310;51.054;6.994;2022-08-19T02:45:46;64.05;;;60.45;;
8544;SDS011;4310;51.054;6.994;2022-08-19T02:46:50;62.67;;;58.87;;
8544;SDS011;4310;51.054;6.994;2022-08-19T02:47:54;62.27;;;58.58;;
8544;SDS011;4310;51.054;6.994;2022-08-19T02:49:00;62.23;;;58.48;;
8544;SDS011;4310;51.054;6.994;2022-08-19T02:50:05;56.73;;;53.23;;
8544;SDS011;4310;51.054;6.994;2022-08-19T02:51:09;55.08;;;51.70;;
8544;SDS011;4310;51.054;6.994;2022-08-19T02:54:37;55.50;;;52.08;;
8544;SDS011;4310;51.054;6.994;2022-08-19T02:55:45;52.95;;;49.70;;
8544;SDS011;4310;51.054;6.994;2022-08-19T02:56:49;54.98;;;51.58;;
8544;SDS011;4310;51.054;6.994;2022-08-19T02:57:53;54.55;;;51.15;;
8544;SDS011;4310;51.054;6.994;2022-08-19T02:58:57;53.48;;;50.05;;
8544;SDS011;4310;51.054;6.994;2022-08-19T03:00:00;53.52;;;50.17;;
8544;SDS011;4310;51.054;6.994;2022-08-19T03:01:04;48.10;;;45.10;;
8544;SDS011;4310;51.054;6.994;2022-08-19T03:02:08;50.10;;;46.90;;
8544;SDS011;4310;51.054;6.994;2022-08-19T03:03:12;51.58;;;48.33;;
8544;SDS011;4310;51.054;6.994;2022-08-19T03:04:16;56.33;;;52.93;;
8544;SDS011;4310;51.054;6.994;2022-08-19T03:05:19;55.78;;;52.53;;
8544;SDS011;4310;51.054;6.994;2022-08-19T03:06:23;54.45;;;51.05;;
8544;SDS011;4310;51.054;6.994;2022-08-19T03:07:27;54.58;;;51.13;;
8544;SDS011;4310;51.054;6.994;2022-08-19T03:08:31;56.75;;;53.15;;
8544;SDS011;4310;51.054;6.994;2022-08-19T03:10:47;57.23;;;53.92;;
8544;SDS011;4310;51.054;6.994;2022-08-19T03:11:51;60.85;;;57.33;;
8544;SDS011;4310;51.054;6.994;2022-08-19T03:12:55;62.15;;;58.55;;
8544;SDS011;4310;51.054;6.994;2022-08-19T03:13:59;70.57;;;66.53;;
8544;SDS011;4310;51.054;6.994;2022-08-19T03:15:04;78.10;;;73.65;;
8544;SDS011;4310;51.054;6.994;2022-08-19T03:16:08;78.27;;;73.90;;
8544;SDS011;4310;51.054;6.994;2022-08-19T03:17:12;72.80;;;68.67;;
8544;SDS011;4310;51.054;6.994;2022-08-19T03:18:16;73.67;;;69.15;;
8544;SDS011;4310;51.054;6.994;2022-08-19T03:20:31;65.10;;;61.17;;
8544;SDS011;4310;51.054;6.994;2022-08-19T03:21:35;65.27;;;61.27;;
8544;SDS011;4310;51.054;6.994;2022-08-19T03:22:39;65.40;;;61.45;;
8544;SDS011;4310;51.054;6.994;2022-08-19T03:23:43;64.53;;;60.50;;
8544;SDS011;4310;51.054;6.994;2022-08-19T03:25:58;61.00;;;57.08;;
8544;SDS011;4310;51.054;6.994;2022-08-19T03:27:02;62.78;;;58.95;;
8544;SDS011;4310;51.054;6.994;2022-08-19T03:28:07;59.63;;;55.83;;
8544;SDS011;4310;51.054;6.994;2022-08-19T03:29:11;60.95;;;57.30;;
8544;SDS011;4310;51.054;6.994;2022-08-19T03:30:15;59.98;;;56.50;;
8544;SDS011;4310;51.054;6.994;2022-08-19T03:31:19;61.55;;;57.80;;
8544;SDS011;4310;51.054;6.994;2022-08-19T03:32:25;63.95;;;60.15;;
8544;SDS011;4310;51.054;6.994;2022-08-19T03:33:29;63.73;;;59.98;;
8544;SDS011;4310;51.054;6.994;2022-08-19T03:34:33;63.10;;;59.30;;
8544;SDS011;4310;51.054;6.994;2022-08-19T03:35:37;60.43;;;56.73;;
8544;SDS011;4310;51.054;6.994;2022-08-19T03:36:41;62.03;;;58.33;;
8544;SDS011;4310;51.054;6.994;2022-08-19T03:37:45;65.15;;;61.10;;
8544;SDS011;4310;51.054;6.994;2022-08-19T03:38:49;60.78;;;57.17;;
8544;SDS011;4310;51.054;6.994;2022-08-19T03:41:06;64.40;;;60.70;;
8544;SDS011;4310;51.054;6.994;2022-08-19T03:42:10;62.00;;;58.40;;
8544;SDS011;4310;51.054;6.994;2022-08-19T03:43:14;65.70;;;61.85;;
8544;SDS011;4310;51.054;6.994;2022-08-19T03:44:20;65.70;;;62.00;;
8544;SDS011;4310;51.054;6.994;2022-08-19T03:45:24;67.55;;;63.52;;
8544;SDS011;4310;51.054;6.994;2022-08-19T03:46:29;64.03;;;60.23;;
8544;SDS011;4310;51.054;6.994;2022-08-19T03:47:33;62.83;;;59.13;;
8544;SDS011;4310;51.054;6.994;2022-08-19T03:48:38;65.25;;;61.45;;
8544;SDS011;4310;51.054;6.994;2022-08-19T03:49:43;67.35;;;63.38;;
8544;SDS011;4310;51.054;6.994;2022-08-19T03:50:47;63.98;;;60.25;;
8544;SDS011;4310;51.054;6.994;2022-08-19T03:51:52;63.35;;;59.58;;
8544;SDS011;4310;51.054;6.994;2022-08-19T03:52:56;64.72;;;61.00;;
8544;SDS011;4310;51.054;6.994;2022-08-19T03:54:01;62.45;;;58.75;;
8544;SDS011;4310;51.054;6.994;2022-08-19T03:55:06;58.15;;;54.45;;
8544;SDS011;4310;51.054;6.994;2022-08-19T03:56:10;56.77;;;53.17;;
8544;SDS011;4310;51.054;6.994;2022-08-19T03:57:13;60.98;;;57.13;;
8544;SDS011;4310;51.054;6.994;2022-08-19T03:58:17;59.42;;;55.43;;
8544;SDS011;4310;51.054;6.994;2022-08-19T03:59:29;64.37;;;60.28;;
8544;SDS011;4310;51.054;6.994;2022-08-19T04:00:27;64.37;;;60.40;;
8544;SDS011;4310;51.054;6.994;2022-08-19T04:01:31;67.87;;;63.87;;
8544;SDS011;4310;51.054;6.994;2022-08-19T04:02:34;69.95;;;65.65;;
8544;SDS011;4310;51.054;6.994;2022-08-19T04:03:39;76.85;;;72.55;;
8544;SDS011;4310;51.054;6.994;2022-08-19T04:04:43;71.40;;;67.27;;
8544;SDS011;4310;51.054;6.994;2022-08-19T04:05:47;65.78;;;61.98;;
8544;SDS011;4310;51.054;6.994;2022-08-19T04:08:02;67.70;;;63.70;;
8544;SDS011;4310;51.054;6.994;2022-08-19T04:09:07;66.60;;;62.60;;
8544;SDS011;4310;51.054;6.994;2022-08-19T04:10:11;67.60;;;63.52;;
8544;SDS011;4310;51.054;6.994;2022-08-19T04:11:15;63.98;;;60.08;;
8544;SDS011;4310;51.054;6.994;2022-08-19T04:12:19;60.83;;;57.10;;
8544;SDS011;4310;51.054;6.994;2022-08-19T04:14:34;62.13;;;58.42;;
8544;SDS011;4310;51.054;6.994;2022-08-19T04:15:39;63.68;;;59.98;;
8544;SDS011;4310;51.054;6.994;2022-08-19T04:16:44;66.20;;;62.38;;
8544;SDS011;4310;51.054;6.994;2022-08-19T04:17:48;67.32;;;63.15;;
8544;SDS011;4310;51.054;6.994;2022-08-19T04:18:52;62.90;;;59.20;;
8544;SDS011;4310;51.054;6.994;2022-08-19T04:19:56;62.30;;;58.50;;
8544;SDS011;4310;51.054;6.994;2022-08-19T04:21:00;61.92;;;58.25;;
8544;SDS011;4310;51.054;6.994;2022-08-19T04:22:04;62.93;;;59.20;;
8544;SDS011;4310;51.054;6.994;2022-08-19T04:23:09;64.30;;;60.43;;
8544;SDS011;4310;51.054;6.994;2022-08-19T04:24:12;60.85;;;57.25;;
8544;SDS011;4310;51.054;6.994;2022-08-19T04:25:16;59.38;;;55.58;;
8544;SDS011;4310;51.054;6.994;2022-08-19T04:26:21;61.35;;;57.45;;
8544;SDS011;4310;51.054;6.994;2022-08-19T04:28:36;60.38;;;56.77;;
8544;SDS011;4310;51.054;6.994;2022-08-19T04:29:40;61.48;;;57.58;;
8544;SDS011;4310;51.054;6.994;2022-08-19T04:30:48;60.73;;;57.03;;
8544;SDS011;4310;51.054;6.994;2022-08-19T04:31:50;58.70;;;55.10;;
8544;SDS011;4310;51.054;6.994;2022-08-19T04:32:55;61.75;;;57.95;;
8544;SDS011;4310;51.054;6.994;2022-08-19T04:33:59;62.80;;;58.97;;
8544;SDS011;4310;51.054;6.994;2022-08-19T04:35:05;62.62;;;58.73;;
8544;SDS011;4310;51.054;6.994;2022-08-19T04:36:10;65.65;;;61.88;;
8544;SDS011;4310;51.054;6.994;2022-08-19T04:37:14;68.22;;;64.03;;
8544;SDS011;4310;51.054;6.994;2022-08-19T04:38:18;68.40;;;64.50;;
8544;SDS011;4310;51.054;6.994;2022-08-19T04:39:24;66.20;;;62.20;;
8544;SDS011;4310;51.054;6.994;2022-08-19T04:40:30;65.45;;;61.42;;
8544;SDS011;4310;51.054;6.994;2022-08-19T04:41:52;62.40;;;58.70;;
8544;SDS011;4310;51.054;6.994;2022-08-19T04:43:13;60.52;;;56.85;;
8544;SDS011;4310;51.054;6.994;2022-08-19T04:44:18;61.37;;;57.30;;
8544;SDS011;4310;51.054;6.994;2022-08-19T04:46:33;56.80;;;53.28;;
8544;SDS011;4310;51.054;6.994;2022-08-19T04:47:37;57.15;;;53.42;;
8544;SDS011;4310;51.054;6.994;2022-08-19T04:48:41;54.93;;;51.33;;
8544;SDS011;4310;51.054;6.994;2022-08-19T04:49:46;58.48;;;54.50;;
8544;SDS011;4310;51.054;6.994;2022-08-19T04:50:50;55.05;;;51.35;;
8544;SDS011;4310;51.054;6.994;2022-08-19T04:51:56;55.67;;;52.10;;
8544;SDS011;4310;51.054;6.994;2022-08-19T04:53:00;56.55;;;52.85;;
8544;SDS011;4310;51.054;6.994;2022-08-19T04:54:04;57.60;;;53.70;;
8544;SDS011;4310;51.054;6.994;2022-08-19T04:55:08;55.48;;;51.68;;
8544;SDS011;4310;51.054;6.994;2022-08-19T04:56:13;55.60;;;51.53;;
8544;SDS011;4310;51.054;6.994;2022-08-19T04:57:17;54.97;;;50.93;;
8544;SDS011;4310;51.054;6.994;2022-08-19T04:58:21;54.98;;;51.28;;
8544;SDS011;4310;51.054;6.994;2022-08-19T04:59:25;55.48;;;51.65;;
8544;SDS011;4310;51.054;6.994;2022-08-19T05:00:29;53.52;;;49.77;;
8544;SDS011;4310;51.054;6.994;2022-08-19T05:01:32;51.83;;;48.23;;
8544;SDS011;4310;51.054;6.994;2022-08-19T05:02:38;49.65;;;46.23;;
8544;SDS011;4310;51.054;6.994;2022-08-19T05:04:56;46.70;;;43.20;;
8544;SDS011;4310;51.054;6.994;2022-08-19T05:06:04;46.75;;;43.48;;
8544;SDS011;4310;51.054;6.994;2022-08-19T05:07:09;44.67;;;41.58;;
8544;SDS011;4310;51.054;6.994;2022-08-19T05:08:14;46.40;;;43.03;;
8544;SDS011;4310;51.054;6.994;2022-08-19T05:09:22;44.88;;;41.55;;
8544;SDS011;4310;51.054;6.994;2022-08-19T05:10:25;46.35;;;42.85;;
8544;SDS011;4310;51.054;6.994;2022-08-19T05:11:30;47.03;;;43.75;;
8544;SDS011;4310;51.054;6.994;2022-08-19T05:12:34;44.98;;;41.73;;
8544;SDS011;4310;51.054;6.994;2022-08-19T05:13:39;44.23;;;40.83;;
8544;SDS011;4310;51.054;6.994;2022-08-19T05:14:43;44.53;;;41.20;;
8544;SDS011;4310;51.054;6.994;2022-08-19T05:15:53;43.60;;;40.35;;
8544;SDS011;4310;51.054;6.994;2022-08-19T05:16:57;44.27;;;41.00;;
8544;SDS011;4310;51.054;6.994;2022-08-19T05:18:01;43.38;;;40.00;;
8544;SDS011;4310;51.054;6.994;2022-08-19T05:19:22;42.33;;;39.27;;
8544;SDS011;4310;51.054;6.994;2022-08-19T05:20:44;41.35;;;37.95;;
8544;SDS011;4310;51.054;6.994;2022-08-19T05:22:06;41.80;;;38.70;;
8544;SDS011;4310;51.054;6.994;2022-08-19T05:23:28;42.03;;;38.88;;
8544;SDS011;4310;51.054;6.994;2022-08-19T05:24:32;40.30;;;37.25;;
8544;SDS011;4310;51.054;6.994;2022-08-19T05:25:38;42.43;;;39.33;;
8544;SDS011;4310;51.054;6.994;2022-08-19T05:26:43;40.95;;;37.80;;
8544;SDS011;4310;51.054;6.994;2022-08-19T05:27:48;42.13;;;38.85;;
8544;SDS011;4310;51.054;6.994;2022-08-19T05:28:51;40.85;;;37.93;;
8544;SDS011;4310;51.054;6.994;2022-08-19T05:29:55;39.83;;;36.83;;
8544;SDS011;4310;51.054;6.994;2022-08-19T05:30:59;39.25;;;36.35;;
8544;SDS011;4310;51.054;6.994;2022-08-19T05:32:03;38.63;;;35.63;;
8544;SDS011;4310;51.054;6.994;2022-08-19T05:34:22;36.00;;;33.20;;
8544;SDS011;4310;51.054;6.994;2022-08-19T05:35:27;35.05;;;32.30;;
8544;SDS011;4310;51.054;6.994;2022-08-19T05:36:33;34.48;;;31.85;;
8544;SDS011;4310;51.054;6.994;2022-08-19T05:37:38;35.10;;;32.40;;
8544;SDS011;4310;51.054;6.994;2022-08-19T05:38:43;33.23;;;30.60;;
8544;SDS011;4310;51.054;6.994;2022-08-19T05:39:46;33.75;;;31.00;;
8544;SDS011;4310;51.054;6.994;2022-08-19T05:40:51;34.05;;;31.23;;
8544;SDS011;4310;51.054;6.994;2022-08-19T05:41:55;33.80;;;31.00;;
8544;SDS011;4310;51.054;6.994;2022-08-19T05:44:11;36.35;;;33.28;;
8544;SDS011;4310;51.054;6.994;2022-08-19T05:45:15;36.95;;;33.90;;
8544;SDS011;4310;51.054;6.994;2022-08-19T05:46:19;38.92;;;35.45;;
8544;SDS011;4310;51.054;6.994;2022-08-19T05:47:23;38.10;;;34.95;;
8544;SDS011;4310;51.054;6.994;2022-08-19T05:48:27;38.30;;;35.05;;
8544;SDS011;4310;51.054;6.994;2022-08-19T05:49:32;36.98;;;33.85;;
8544;SDS011;4310;51.054;6.994;2022-08-19T05:50:35;38.17;;;35.03;;
8544;SDS011;4310;51.054;6.994;2022-08-19T05:51:39;40.25;;;36.65;;
8544;SDS011;4310;51.054;6.994;2022-08-19T05:52:43;41.40;;;37.65;;
8544;SDS011;4310;51.054;6.994;2022-08-19T05:53:47;44.15;;;40.25;;
8544;SDS011;4310;51.054;6.994;2022-08-19T05:56:04;48.33;;;44.03;;
8544;SDS011;4310;51.054;6.994;2022-08-19T05:57:08;45.63;;;41.73;;
8544;SDS011;4310;51.054;6.994;2022-08-19T05:58:12;48.52;;;44.08;;
8544;SDS011;4310;51.054;6.994;2022-08-19T05:59:16;51.53;;;46.77;;
8544;SDS011;4310;51.054;6.994;2022-08-19T06:00:20;51.80;;;46.92;;
8544;SDS011;4310;51.054;6.994;2022-08-19T06:01:24;52.17;;;47.43;;
8544;SDS011;4310;51.054;6.994;2022-08-19T06:02:28;54.33;;;49.33;;
8544;SDS011;4310;51.054;6.994;2022-08-19T06:03:33;55.15;;;50.00;;
8544;SDS011;4310;51.054;6.994;2022-08-19T06:04:37;56.20;;;51.20;;
8544;SDS011;4310;51.054;6.994;2022-08-19T06:05:41;54.05;;;49.10;;
8544;SDS011;4310;51.054;6.994;2022-08-19T06:06:45;52.17;;;47.10;;
8544;SDS011;4310;51.054;6.994;2022-08-19T06:07:49;52.05;;;47.05;;
8544;SDS011;4310;51.054;6.994;2022-08-19T06:08:53;52.45;;;47.15;;
8544;SDS011;4310;51.054;6.994;2022-08-19T06:09:56;53.17;;;47.90;;
8544;SDS011;4310;51.054;6.994;2022-08-19T06:11:11;53.55;;;48.60;;
8544;SDS011;4310;51.054;6.994;2022-08-19T06:12:16;55.15;;;49.95;;
8544;SDS011;4310;51.054;6.994;2022-08-19T06:13:19;53.00;;;47.85;;
8544;SDS011;4310;51.054;6.994;2022-08-19T06:14:24;56.63;;;51.23;;
8544;SDS011;4310;51.054;6.994;2022-08-19T06:15:29;58.55;;;52.93;;
8544;SDS011;4310;51.054;6.994;2022-08-19T06:17:44;54.53;;;49.42;;
8544;SDS011;4310;51.054;6.994;2022-08-19T06:18:48;56.63;;;51.02;;
8544;SDS011;4310;51.054;6.994;2022-08-19T06:19:54;56.18;;;50.67;;
8544;SDS011;4310;51.054;6.994;2022-08-19T06:20:58;57.63;;;51.93;;
8544;SDS011;4310;51.054;6.994;2022-08-19T06:22:02;57.67;;;52.08;;
8544;SDS011;4310;51.054;6.994;2022-08-19T06:23:06;56.68;;;51.13;;
8544;SDS011;4310;51.054;6.994;2022-08-19T06:24:11;55.55;;;50.20;;
8544;SDS011;4310;51.054;6.994;2022-08-19T06:25:15;52.80;;;47.65;;
8544;SDS011;4310;51.054;6.994;2022-08-19T06:27:31;52.55;;;47.03;;
8544;SDS011;4310;51.054;6.994;2022-08-19T06:28:35;50.90;;;45.80;;
8544;SDS011;4310;51.054;6.994;2022-08-19T06:29:41;52.83;;;47.55;;
8544;SDS011;4310;51.054;6.994;2022-08-19T06:30:45;51.90;;;46.60;;
8544;SDS011;4310;51.054;6.994;2022-08-19T06:31:50;53.40;;;47.93;;
8544;SDS011;4310;51.054;6.994;2022-08-19T06:32:54;52.20;;;46.90;;
8544;SDS011;4310;51.054;6.994;2022-08-19T06:33:58;51.18;;;45.73;;
8544;SDS011;4310;51.054;6.994;2022-08-19T06:35:02;49.63;;;44.50;;
8544;SDS011;4310;51.054;6.994;2022-08-19T06:36:06;49.48;;;44.55;;
8544;SDS011;4310;51.054;6.994;2022-08-19T06:38:21;50.90;;;45.17;;
8544;SDS011;4310;51.054;6.994;2022-08-19T06:39:26;47.80;;;42.80;;
8544;SDS011;4310;51.054;6.994;2022-08-19T06:42:35;49.05;;;43.52;;
8544;SDS011;4310;51.054;6.994;2022-08-19T06:43:40;49.88;;;44.35;;
8544;SDS011;4310;51.054;6.994;2022-08-19T06:44:46;48.50;;;41.65;;
8544;SDS011;4310;51.054;6.994;2022-08-19T06:45:51;47.23;;;42.20;;
8544;SDS011;4310;51.054;6.994;2022-08-19T06:46:55;44.93;;;40.00;;
8544;SDS011;4310;51.054;6.994;2022-08-19T06:47:59;48.33;;;41.60;;
8544;SDS011;4310;51.054;6.994;2022-08-19T06:50:14;46.00;;;40.98;;
8544;SDS011;4310;51.054;6.994;2022-08-19T06:51:18;44.93;;;40.03;;
8544;SDS011;4310;51.054;6.994;2022-08-19T06:52:21;45.17;;;40.30;;
8544;SDS011;4310;51.054;6.994;2022-08-19T06:54:37;44.15;;;39.33;;
8544;SDS011;4310;51.054;6.994;2022-08-19T06:55:41;43.33;;;38.33;;
8544;SDS011;4310;51.054;6.994;2022-08-19T06:56:45;44.33;;;39.45;;
8544;SDS011;4310;51.054;6.994;2022-08-19T06:57:49;45.83;;;40.80;;
8544;SDS011;4310;51.054;6.994;2022-08-19T06:58:54;42.48;;;37.85;;
8544;SDS011;4310;51.054;6.994;2022-08-19T06:59:58;44.48;;;38.70;;
8544;SDS011;4310;51.054;6.994;2022-08-19T07:01:03;42.95;;;38.30;;
8544;SDS011;4310;51.054;6.994;2022-08-19T07:02:06;42.85;;;37.33;;
8544;SDS011;4310;51.054;6.994;2022-08-19T07:03:10;40.78;;;36.38;;
8544;SDS011;4310;51.054;6.994;2022-08-19T07:04:15;41.05;;;35.98;;
8544;SDS011;4310;51.054;6.994;2022-08-19T07:05:19;38.48;;;34.30;;
8544;SDS011;4310;51.054;6.994;2022-08-19T07:06:23;40.12;;;35.83;;
8544;SDS011;4310;51.054;6.994;2022-08-19T07:07:27;42.23;;;35.73;;
8544;SDS011;4310;51.054;6.994;2022-08-19T07:08:31;40.08;;;33.92;;
8544;SDS011;4310;51.054;6.994;2022-08-19T07:09:37;40.57;;;35.57;;
8544;SDS011;4310;51.054;6.994;2022-08-19T07:10:43;40.20;;;35.08;;
8544;SDS011;4310;51.054;6.994;2022-08-19T07:11:48;41.75;;;35.55;;
8544;SDS011;4310;51.054;6.994;2022-08-19T07:12:53;37.60;;;33.60;;
8544;SDS011;4310;51.054;6.994;2022-08-19T07:13:56;39.08;;;34.73;;
8544;SDS011;4310;51.054;6.994;2022-08-19T07:16:13;40.17;;;34.63;;
8544;SDS011;4310;51.054;6.994;2022-08-19T07:17:17;39.53;;;35.23;;
8544;SDS011;4310;51.054;6.994;2022-08-19T07:18:22;38.90;;;34.65;;